Green Bush, Kansas
Current Conditions -  °F | °C
As of 5:15 AM on Wednesday 26 Nov 2014 (Local Time) from KPTS Reporting Station
Overcast Overcast  
Wind Chill: 37°   Ceiling: 8000
Heat Index: 41°   Visibility: 10mi
Dew Point: 28°   Wind: 6mph
Humidity: 60%   Direction: 240°WSW
Pressure: 29.93"   Gusts: NA
Location:  37.5057°N, 94.9338°W
Report Text: KPTS 261115Z AUTO 24005KT 10SM BKN080 OVC090 05/M02 A2993 RMK AO2 T00501022
Loading
Personal Weather Stations






























Interactive Weather Map New forecast layout! Learn more

10-Day Weather Forecast

Advertisements
Track Severe Weather on mobile